createdAt,value
2023-02-28T00:05:23.843Z,-0.40
2023-02-28T00:07:50.751Z,-0.50
2023-02-28T00:10:25.193Z,0.50
2023-02-28T00:12:53.030Z,-0.40
2023-02-28T00:22:41.764Z,-0.40
2023-02-28T00:25:08.705Z,-0.50
2023-02-28T00:27:37.056Z,-0.50
2023-02-28T00:30:05.472Z,-0.30
2023-02-28T00:37:27.026Z,-0.50
2023-02-28T00:39:53.173Z,-0.10
2023-02-28T00:44:47.707Z,-0.50
2023-02-28T00:49:41.978Z,-0.60
2023-02-28T00:57:04.686Z,-0.50
2023-02-28T01:06:51.118Z,-0.50
2023-02-28T01:09:17.660Z,-0.70
2023-02-28T01:11:44.928Z,-0.70
2023-02-28T01:14:16.055Z,-0.70
2023-02-28T01:19:08.759Z,-0.90
2023-02-28T01:36:23.732Z,-1.80
2023-02-28T01:38:49.924Z,-0.60
2023-02-28T01:41:24.348Z,-0.80
2023-02-28T01:43:59.044Z,-0.60
2023-02-28T01:49:17.302Z,-0.90
2023-02-28T01:51:50.779Z,-0.60
2023-02-28T01:54:20.655Z,-0.80
2023-02-28T01:57:05.479Z,-0.90
2023-02-28T01:59:49.818Z,-0.70
2023-02-28T02:02:17.933Z,-0.90
2023-02-28T02:05:51.345Z,-1.00
2023-02-28T02:08:28.534Z,-1.00
2023-02-28T02:10:56.855Z,-1.00
2023-02-28T02:19:32.240Z,-0.90
2023-02-28T02:24:54.388Z,-0.80
2023-02-28T02:27:47.756Z,-0.90
2023-02-28T02:30:41.680Z,-0.90
2023-02-28T02:36:43.002Z,-0.90
2023-02-28T02:40:04.431Z,-0.90
2023-02-28T02:45:28.318Z,-0.90
2023-02-28T02:47:56.072Z,-1.00
2023-02-28T02:50:30.513Z,-1.00
2023-02-28T02:52:58.568Z,-0.90
2023-02-28T02:55:25.306Z,-1.20
2023-02-28T02:57:58.454Z,-0.90
2023-02-28T03:00:29.358Z,-1.20
2023-02-28T03:02:55.470Z,-0.90
2023-02-28T03:05:26.825Z,-1.00
2023-02-28T03:08:00.974Z,-1.10
2023-02-28T03:11:15.156Z,-1.30
2023-02-28T03:15:24.369Z,-1.00
2023-02-28T03:18:01.724Z,-2.10
2023-02-28T03:22:13.085Z,-1.30
2023-02-28T03:27:59.444Z,-1.20
2023-02-28T03:30:46.045Z,-1.00
2023-02-28T03:33:18.770Z,-0.40
2023-02-28T03:35:54.207Z,-1.20
2023-02-28T03:38:41.692Z,-1.30
2023-02-28T03:45:54.602Z,-1.20
2023-02-28T03:48:24.550Z,-0.90
2023-02-28T03:53:36.634Z,-1.20
2023-02-28T04:02:07.738Z,-1.10
2023-02-28T04:11:58.573Z,-1.10
2023-02-28T04:21:49.866Z,-1.10
2023-02-28T04:24:18.011Z,-1.30
2023-02-28T04:41:31.036Z,-0.80
2023-02-28T04:46:26.062Z,-1.00
2023-02-28T05:01:34.897Z,-0.80
2023-02-28T05:06:32.093Z,-0.50
2023-02-28T05:08:58.240Z,-0.80
2023-02-28T05:13:56.714Z,-0.60
2023-02-28T05:28:46.629Z,-1.00
2023-02-28T05:48:22.159Z,-0.70
2023-02-28T06:00:37.495Z,-0.40
2023-02-28T06:22:42.048Z,3.80
2023-02-28T06:25:10.201Z,4.20
2023-02-28T06:34:58.374Z,7.10
2023-02-28T06:42:29.127Z,8.90
2023-02-28T06:44:56.668Z,9.20
2023-02-28T06:52:17.089Z,9.80
2023-02-28T07:04:30.484Z,10.40
2023-02-28T07:06:57.338Z,10.60
2023-02-28T07:09:23.877Z,10.30
2023-02-28T07:11:50.313Z,10.00
2023-02-28T07:16:45.723Z,8.80
2023-02-28T07:19:12.065Z,8.80
2023-02-28T07:24:07.139Z,8.60
2023-02-28T07:26:36.317Z,8.30
2023-02-28T07:29:04.246Z,8.20
2023-02-28T07:31:31.218Z,8.30
2023-02-28T07:33:58.877Z,7.90
2023-02-28T07:36:25.575Z,7.60
2023-02-28T07:38:51.788Z,7.20
2023-02-28T07:41:19.797Z,7.50
2023-02-28T07:43:47.344Z,7.70
2023-02-28T07:46:15.652Z,7.90
2023-02-28T07:48:42.775Z,7.80
2023-02-28T07:51:09.414Z,8.10
2023-02-28T07:53:36.064Z,8.20
2023-02-28T07:56:03.460Z,8.60
2023-02-28T07:58:30.294Z,8.40
2023-02-28T08:00:56.688Z,9.30
2023-02-28T08:03:24.760Z,10.20
2023-02-28T08:05:52.765Z,10.80
2023-02-28T08:08:20.320Z,11.10
2023-02-28T08:10:47.434Z,11.10
2023-02-28T08:13:13.679Z,11.40
2023-02-28T08:15:43.573Z,11.70
2023-02-28T08:18:10.200Z,11.80
2023-02-28T08:20:36.632Z,11.90
2023-02-28T08:23:02.946Z,12.60
2023-02-28T08:25:29.507Z,12.60
2023-02-28T08:27:55.797Z,11.70
2023-02-28T08:30:22.506Z,11.20
2023-02-28T08:32:49.306Z,10.30
2023-02-28T08:35:15.729Z,10.10
2023-02-28T08:37:42.021Z,8.50
2023-02-28T08:40:10.949Z,8.50
2023-02-28T08:42:38.746Z,9.30
2023-02-28T08:45:07.030Z,9.90
2023-02-28T08:47:34.147Z,10.00
2023-02-28T08:50:00.877Z,9.90
2023-02-28T08:52:27.052Z,10.80
2023-02-28T08:54:53.278Z,11.20
2023-02-28T08:57:19.665Z,11.30
2023-02-28T08:59:46.067Z,11.40
2023-02-28T09:02:16.014Z,11.30
2023-02-28T09:04:42.365Z,10.60
2023-02-28T09:07:09.174Z,9.50
2023-02-28T09:09:35.387Z,9.90
2023-02-28T09:12:02.970Z,10.10
2023-02-28T09:14:29.186Z,9.50
2023-02-28T09:16:57.420Z,8.70
2023-02-28T09:19:23.664Z,9.60
2023-02-28T09:21:52.035Z,8.20
2023-02-28T09:24:19.234Z,8.50
2023-02-28T09:26:56.543Z,8.70
2023-02-28T09:29:29.873Z,8.10
2023-02-28T09:31:59.018Z,7.60
2023-02-28T09:34:27.322Z,7.80
2023-02-28T09:36:56.132Z,7.40
2023-02-28T09:39:22.710Z,8.50
2023-02-28T09:41:52.490Z,9.90
2023-02-28T09:44:38.390Z,8.80
2023-02-28T09:47:34.836Z,8.20
2023-02-28T09:50:28.952Z,7.60
2023-02-28T09:52:55.278Z,8.10
2023-02-28T09:56:13.907Z,8.00
2023-02-28T09:58:50.290Z,7.80
2023-02-28T10:01:30.997Z,8.50
2023-02-28T10:04:19.956Z,8.90
2023-02-28T10:06:49.735Z,8.70
2023-02-28T10:09:27.925Z,8.80
2023-02-28T10:11:58.970Z,7.80
2023-02-28T10:14:28.708Z,6.80
2023-02-28T10:17:17.509Z,7.40
2023-02-28T10:20:20.620Z,7.50
2023-02-28T10:23:36.402Z,5.60
2023-02-28T10:26:16.707Z,6.00
2023-02-28T10:28:42.953Z,5.90
2023-02-28T10:31:17.195Z,6.10
2023-02-28T10:33:43.433Z,6.10
2023-02-28T10:36:18.200Z,6.80
2023-02-28T10:38:46.299Z,6.80
2023-02-28T10:41:16.415Z,6.10
2023-02-28T10:43:45.319Z,6.40
2023-02-28T10:46:27.863Z,6.40
2023-02-28T10:49:06.210Z,7.40
2023-02-28T10:51:40.766Z,8.10
2023-02-28T10:54:14.816Z,7.30
2023-02-28T10:56:40.972Z,6.80
2023-02-28T11:00:17.318Z,6.70
2023-02-28T11:02:47.030Z,6.10
2023-02-28T11:07:06.861Z,6.00
2023-02-28T11:09:40.000Z,5.80
2023-02-28T11:12:28.949Z,5.90
2023-02-28T11:14:57.502Z,6.40
2023-02-28T11:17:25.294Z,6.10
2023-02-28T11:19:57.077Z,6.40
2023-02-28T11:22:29.100Z,6.50
2023-02-28T11:25:00.590Z,7.10
2023-02-28T11:27:50.129Z,7.70
2023-02-28T11:30:37.825Z,8.20
2023-02-28T11:35:56.789Z,8.30
2023-02-28T11:38:23.178Z,8.20
2023-02-28T11:41:02.357Z,7.10
2023-02-28T11:48:43.188Z,6.90
2023-02-28T11:52:03.484Z,7.10
2023-02-28T11:58:26.219Z,6.50
2023-02-28T12:01:15.778Z,5.90
2023-02-28T12:04:19.199Z,5.60
2023-02-28T12:07:37.672Z,6.00
2023-02-28T12:11:11.535Z,5.90
2023-02-28T12:15:14.126Z,6.20
2023-02-28T12:19:12.421Z,6.10
2023-02-28T12:22:19.773Z,6.20
2023-02-28T12:25:22.470Z,5.90
2023-02-28T12:27:49.271Z,5.60
2023-02-28T12:30:33.207Z,5.80
2023-02-28T12:33:08.356Z,5.60
2023-02-28T12:35:48.053Z,5.90
2023-02-28T12:38:27.613Z,5.60
2023-02-28T12:41:07.332Z,5.50
2023-02-28T12:43:38.387Z,5.60
2023-02-28T12:46:33.169Z,5.40
2023-02-28T12:49:01.453Z,5.30
2023-02-28T12:51:28.149Z,5.30
2023-02-28T12:57:38.452Z,5.20
2023-02-28T13:00:12.490Z,5.20
2023-02-28T13:04:09.638Z,5.10
2023-02-28T13:07:59.077Z,4.90
2023-02-28T13:10:28.060Z,5.60
2023-02-28T13:12:55.069Z,5.30
2023-02-28T13:15:26.033Z,4.90
2023-02-28T13:17:53.920Z,5.30
2023-02-28T13:20:40.529Z,4.90
2023-02-28T13:24:08.544Z,5.00
2023-02-28T13:28:12.043Z,4.90
2023-02-28T13:34:13.778Z,5.30
2023-02-28T13:36:41.255Z,5.30
2023-02-28T13:40:28.133Z,5.60
2023-02-28T13:42:54.998Z,5.60
2023-02-28T13:45:29.323Z,5.40
2023-02-28T13:48:42.204Z,5.50
2023-02-28T13:51:44.947Z,5.60
2023-02-28T13:54:59.317Z,5.30
2023-02-28T13:57:51.381Z,5.20
2023-02-28T14:02:36.609Z,5.20
2023-02-28T14:06:06.623Z,5.00
2023-02-28T14:08:34.652Z,5.30
2023-02-28T14:11:06.049Z,5.60
2023-02-28T14:13:44.863Z,5.30
2023-02-28T14:16:13.971Z,5.20
2023-02-28T14:20:32.520Z,5.00
2023-02-28T14:23:07.658Z,4.70
2023-02-28T14:25:45.254Z,4.70
2023-02-28T14:28:48.446Z,4.70
2023-02-28T14:31:19.915Z,4.60
2023-02-28T14:34:14.848Z,4.40
2023-02-28T14:36:42.179Z,4.30
2023-02-28T14:39:13.907Z,4.30
2023-02-28T14:41:42.663Z,4.30
2023-02-28T14:44:22.840Z,4.30
2023-02-28T14:46:51.147Z,4.20
2023-02-28T14:50:00.054Z,4.10
2023-02-28T14:52:32.230Z,4.10
2023-02-28T14:55:08.425Z,4.00
2023-02-28T14:57:41.444Z,3.90
2023-02-28T15:00:26.415Z,3.90
2023-02-28T15:02:54.787Z,3.90
2023-02-28T15:05:34.199Z,3.90
2023-02-28T15:08:14.685Z,3.70
2023-02-28T15:10:47.045Z,3.70
2023-02-28T15:13:16.545Z,3.60
2023-02-28T15:17:06.800Z,3.60
2023-02-28T15:19:37.164Z,3.50
2023-02-28T15:22:12.655Z,3.40
2023-02-28T15:24:51.102Z,3.40
2023-02-28T15:27:29.148Z,3.40
2023-02-28T15:29:58.584Z,3.30
2023-02-28T15:32:37.166Z,3.30
2023-02-28T15:38:37.456Z,3.20
2023-02-28T15:41:10.316Z,4.10
2023-02-28T15:43:38.682Z,3.00
2023-02-28T15:46:13.602Z,2.90
2023-02-28T15:49:18.394Z,2.80
2023-02-28T15:51:46.767Z,2.80
2023-02-28T15:54:35.310Z,2.70
2023-02-28T15:57:09.622Z,2.60
2023-02-28T15:59:39.192Z,2.50
2023-02-28T16:02:20.980Z,2.40
2023-02-28T16:06:07.841Z,2.40
2023-02-28T16:08:34.074Z,2.20
2023-02-28T16:11:00.774Z,2.10
2023-02-28T16:13:29.612Z,1.90
2023-02-28T16:15:55.853Z,1.80
2023-02-28T16:18:23.619Z,1.60
2023-02-28T16:20:51.350Z,1.60
2023-02-28T16:23:18.322Z,1.50
2023-02-28T16:25:44.965Z,1.50
2023-02-28T16:28:24.632Z,1.40
2023-02-28T16:30:54.102Z,1.30
2023-02-28T16:33:22.721Z,1.20
2023-02-28T16:35:50.809Z,1.10
2023-02-28T16:38:17.222Z,1.10
2023-02-28T16:40:44.903Z,1.00
2023-02-28T16:43:21.470Z,0.90
2023-02-28T16:48:17.801Z,0.70
2023-02-28T16:53:14.187Z,0.50
2023-02-28T16:55:41.451Z,0.50
2023-02-28T16:58:17.136Z,0.40
2023-02-28T17:00:44.817Z,0.30
2023-02-28T17:03:31.968Z,0.20
2023-02-28T17:08:30.737Z,0.00
2023-02-28T17:13:25.074Z,-0.30
2023-02-28T17:15:53.783Z,-0.30
2023-02-28T17:20:50.460Z,-0.30
2023-02-28T17:23:17.740Z,-0.40
2023-02-28T17:25:55.655Z,-0.40
2023-02-28T17:28:24.844Z,-0.20
2023-02-28T17:30:51.784Z,-0.50
2023-02-28T17:33:20.874Z,-0.40
2023-02-28T17:35:48.344Z,-0.40
2023-02-28T17:38:17.879Z,-0.40
2023-02-28T17:45:39.899Z,-0.60
2023-02-28T17:48:10.414Z,-0.50
2023-02-28T17:50:39.932Z,-0.60
2023-02-28T17:53:08.586Z,-0.50
2023-02-28T17:55:36.579Z,-0.70
2023-02-28T17:58:05.495Z,-0.90
2023-02-28T18:00:35.901Z,-0.80
2023-02-28T18:03:04.861Z,-1.00
2023-02-28T18:05:33.422Z,-1.00
2023-02-28T18:15:21.550Z,-1.00
2023-02-28T18:17:48.543Z,-0.60
2023-02-28T18:20:15.340Z,-1.20
2023-02-28T18:22:42.395Z,-0.60
2023-02-28T18:25:11.015Z,-1.20
2023-02-28T18:27:37.967Z,-1.00
2023-02-28T18:30:06.800Z,-1.10
2023-02-28T18:32:34.067Z,-1.20
2023-02-28T18:37:29.076Z,-1.40
2023-02-28T18:39:55.606Z,-1.20
2023-02-28T18:47:15.918Z,-1.50
2023-02-28T18:49:42.252Z,-1.50
2023-02-28T18:52:08.788Z,-1.50
2023-02-28T18:57:04.297Z,-1.70
2023-02-28T19:01:58.312Z,-1.70
2023-02-28T19:06:55.119Z,-1.70
2023-02-28T19:11:50.693Z,-1.70
2023-02-28T19:14:18.547Z,-1.80
2023-02-28T19:16:47.984Z,-1.60
2023-02-28T19:19:14.848Z,-1.80
2023-02-28T19:21:44.613Z,-1.70
2023-02-28T19:26:41.684Z,-1.70
2023-02-28T19:34:15.097Z,-1.50
2023-02-28T19:36:43.396Z,-1.90
2023-02-28T19:41:41.441Z,-2.10
2023-02-28T19:44:07.889Z,-2.00
2023-02-28T19:51:29.690Z,-2.50
2023-02-28T19:58:53.404Z,-2.20
2023-02-28T20:03:51.545Z,-2.40
2023-02-28T20:08:47.557Z,-2.40
2023-02-28T20:11:16.164Z,-2.60
2023-02-28T20:13:43.297Z,-2.80
2023-02-28T20:16:11.992Z,-2.70
2023-02-28T20:18:39.028Z,-3.00
2023-02-28T20:21:10.430Z,-3.00
2023-02-28T20:23:40.507Z,-3.00
2023-02-28T20:26:07.508Z,-3.00
2023-02-28T20:31:01.720Z,-3.30
2023-02-28T20:33:28.743Z,-3.30
2023-02-28T20:36:00.146Z,-3.50
2023-02-28T20:40:57.278Z,-3.70
2023-02-28T20:45:53.155Z,-3.80
2023-02-28T20:48:20.369Z,-3.40
2023-02-28T20:50:53.051Z,-3.70
2023-02-28T20:53:19.543Z,-3.70
2023-02-28T20:56:17.981Z,-3.70
2023-02-28T20:58:46.565Z,-3.70
2023-02-28T21:01:25.369Z,-3.60
2023-02-28T21:03:54.421Z,-4.00
2023-02-28T21:06:23.782Z,-3.80
2023-02-28T21:08:51.347Z,-3.80
2023-02-28T21:11:28.185Z,-4.00
2023-02-28T21:13:56.503Z,-4.00
2023-02-28T21:16:23.549Z,-4.20
2023-02-28T21:21:20.405Z,-3.90
2023-02-28T21:26:23.943Z,-4.10
2023-02-28T21:28:55.065Z,-4.10
2023-02-28T21:31:24.450Z,-4.30
2023-02-28T21:33:54.676Z,-3.50
2023-02-28T21:36:29.295Z,-4.30
2023-02-28T21:38:56.792Z,-4.30
2023-02-28T21:43:50.874Z,-4.30
2023-02-28T21:46:19.562Z,-4.40
2023-02-28T21:51:19.871Z,-4.50
2023-02-28T21:56:24.095Z,-4.60
2023-02-28T21:58:51.047Z,-4.00
2023-02-28T22:01:22.505Z,-4.70
2023-02-28T22:03:49.046Z,-4.80
2023-02-28T22:06:26.048Z,-4.60
2023-02-28T22:08:53.321Z,-4.50
2023-02-28T22:11:19.684Z,-4.50
2023-02-28T22:13:48.589Z,-4.60
2023-02-28T22:16:16.515Z,-4.40
2023-02-28T22:21:09.799Z,-4.60
2023-02-28T22:23:37.871Z,-5.00
2023-02-28T22:26:06.025Z,-4.40
2023-02-28T22:31:00.734Z,-4.10
2023-02-28T22:33:28.510Z,-4.40
2023-02-28T22:35:55.546Z,-4.70
2023-02-28T22:58:01.911Z,-4.50
2023-02-28T23:02:56.673Z,-4.60
2023-02-28T23:10:18.150Z,-4.50
2023-02-28T23:15:17.755Z,-4.50
2023-02-28T23:17:46.283Z,-4.50
2023-02-28T23:20:13.682Z,-4.50
2023-02-28T23:27:43.314Z,-4.90
2023-02-28T23:30:12.101Z,-4.90
2023-02-28T23:32:41.064Z,-5.00
2023-02-28T23:35:08.736Z,-5.00
2023-02-28T23:37:36.207Z,-4.90
2023-02-28T23:42:29.593Z,-5.00
2023-02-28T23:49:51.492Z,-5.00
